sensor_id;sensor_type;location;lat;lon;timestamp;temperature;humidity
59556;DHT22;45374;52.746;6.304;2023-01-10T00:00:31;4.80;99.90
59556;DHT22;45374;52.746;6.304;2023-01-10T00:03:00;4.70;99.90
59556;DHT22;45374;52.746;6.304;2023-01-10T00:05:26;4.70;99.90
59556;DHT22;45374;52.746;6.304;2023-01-10T00:07:51;4.70;99.90
59556;DHT22;45374;52.746;6.304;2023-01-10T00:10:17;4.60;99.90
59556;DHT22;45374;52.746;6.304;2023-01-10T00:12:43;4.80;99.90
59556;DHT22;45374;52.746;6.304;2023-01-10T00:15:27;4.70;99.90
59556;DHT22;45374;52.746;6.304;2023-01-10T00:17:53;4.90;99.90
59556;DHT22;45374;52.746;6.304;2023-01-10T00:20:18;5.10;99.90
59556;DHT22;45374;52.746;6.304;2023-01-10T00:22:44;5.30;99.90
59556;DHT22;45374;52.746;6.304;2023-01-10T00:25:10;5.30;99.90
59556;DHT22;45374;52.746;6.304;2023-01-10T00:27:36;5.40;99.90
59556;DHT22;45374;52.746;6.304;2023-01-10T00:30:02;5.60;99.90
59556;DHT22;45374;52.746;6.304;2023-01-10T00:32:34;5.60;99.90
59556;DHT22;45374;52.746;6.304;2023-01-10T00:34:59;5.80;99.90
59556;DHT22;45374;52.746;6.304;2023-01-10T00:37:26;5.70;99.90
59556;DHT22;45374;52.746;6.304;2023-01-10T00:39:51;6.00;99.90
59556;DHT22;45374;52.746;6.304;2023-01-10T00:42:17;6.00;99.90
59556;DHT22;45374;52.746;6.304;2023-01-10T00:45:01;5.90;99.90
59556;DHT22;45374;52.746;6.304;2023-01-10T00:47:26;6.00;99.90
59556;DHT22;45374;52.746;6.304;2023-01-10T00:49:52;6.00;99.90
59556;DHT22;45374;52.746;6.304;2023-01-10T00:52:18;6.00;99.90
59556;DHT22;45374;52.746;6.304;2023-01-10T00:54:43;5.90;99.90
59556;DHT22;45374;52.746;6.304;2023-01-10T00:57:09;6.00;99.90
59556;DHT22;45374;52.746;6.304;2023-01-10T00:59:34;6.00;99.90
59556;DHT22;45374;52.746;6.304;2023-01-10T01:02:00;5.90;99.90
59556;DHT22;45374;52.746;6.304;2023-01-10T01:04:25;5.90;99.90
59556;DHT22;45374;52.746;6.304;2023-01-10T01:06:51;5.80;99.90
59556;DHT22;45374;52.746;6.304;2023-01-10T01:09:17;5.90;99.90
59556;DHT22;45374;52.746;6.304;2023-01-10T01:11:42;5.80;99.90
59556;DHT22;45374;52.746;6.304;2023-01-10T01:14:08;5.80;99.90
59556;DHT22;45374;52.746;6.304;2023-01-10T01:16:34;5.80;99.90
59556;DHT22;45374;52.746;6.304;2023-01-10T01:18:59;5.80;99.90
59556;DHT22;45374;52.746;6.304;2023-01-10T01:21:25;5.80;99.90
59556;DHT22;45374;52.746;6.304;2023-01-10T01:23:55;5.70;99.90
59556;DHT22;45374;52.746;6.304;2023-01-10T01:26:24;5.60;99.90
59556;DHT22;45374;52.746;6.304;2023-01-10T01:28:50;5.50;99.90
59556;DHT22;45374;52.746;6.304;2023-01-10T01:31:16;5.60;99.90
59556;DHT22;45374;52.746;6.304;2023-01-10T01:33:41;5.40;99.90
59556;DHT22;45374;52.746;6.304;2023-01-10T01:36:09;5.50;99.90
59556;DHT22;45374;52.746;6.304;2023-01-10T01:38:36;5.40;99.90
59556;DHT22;45374;52.746;6.304;2023-01-10T01:41:02;5.50;99.90
59556;DHT22;45374;52.746;6.304;2023-01-10T01:43:29;5.40;99.90
59556;DHT22;45374;52.746;6.304;2023-01-10T01:46:00;5.40;99.90
59556;DHT22;45374;52.746;6.304;2023-01-10T01:48:37;5.40;99.90
59556;DHT22;45374;52.746;6.304;2023-01-10T01:51:11;5.50;99.90
59556;DHT22;45374;52.746;6.304;2023-01-10T01:53:47;5.50;99.90
59556;DHT22;45374;52.746;6.304;2023-01-10T01:56:22;5.50;99.90
59556;DHT22;45374;52.746;6.304;2023-01-10T01:58:54;5.60;99.90
59556;DHT22;45374;52.746;6.304;2023-01-10T02:01:21;5.60;99.90
59556;DHT22;45374;52.746;6.304;2023-01-10T02:03:51;5.60;99.90
59556;DHT22;45374;52.746;6.304;2023-01-10T02:06:18;5.50;99.90
59556;DHT22;45374;52.746;6.304;2023-01-10T02:08:52;5.50;99.90
59556;DHT22;45374;52.746;6.304;2023-01-10T02:11:19;5.50;99.90
59556;DHT22;45374;52.746;6.304;2023-01-10T02:13:45;5.40;99.90
59556;DHT22;45374;52.746;6.304;2023-01-10T02:16:11;5.40;99.90
59556;DHT22;45374;52.746;6.304;2023-01-10T02:18:38;5.40;99.90
59556;DHT22;45374;52.746;6.304;2023-01-10T02:21:27;5.30;99.90
59556;DHT22;45374;52.746;6.304;2023-01-10T02:24:11;5.30;99.90
59556;DHT22;45374;52.746;6.304;2023-01-10T02:29:33;5.20;99.90
59556;DHT22;45374;52.746;6.304;2023-01-10T02:34:52;5.30;99.90
59556;DHT22;45374;52.746;6.304;2023-01-10T02:45:29;5.30;99.90
59556;DHT22;45374;52.746;6.304;2023-01-10T02:47:56;5.30;99.90
59556;DHT22;45374;52.746;6.304;2023-01-10T02:53:04;5.40;99.90
59556;DHT22;45374;52.746;6.304;2023-01-10T02:58:35;5.50;99.90
59556;DHT22;45374;52.746;6.304;2023-01-10T03:01:27;5.40;99.90
59556;DHT22;45374;52.746;6.304;2023-01-10T03:07:15;5.60;99.90
59556;DHT22;45374;52.746;6.304;2023-01-10T03:09:55;5.60;99.90
59556;DHT22;45374;52.746;6.304;2023-01-10T03:12:31;5.50;99.90
59556;DHT22;45374;52.746;6.304;2023-01-10T03:14:58;5.70;99.90
59556;DHT22;45374;52.746;6.304;2023-01-10T03:17:25;5.70;99.90
59556;DHT22;45374;52.746;6.304;2023-01-10T03:19:55;5.70;99.90
59556;DHT22;45374;52.746;6.304;2023-01-10T03:22:24;5.70;99.90
59556;DHT22;45374;52.746;6.304;2023-01-10T03:24:53;5.70;99.90
59556;DHT22;45374;52.746;6.304;2023-01-10T03:30:53;5.60;99.90
59556;DHT22;45374;52.746;6.304;2023-01-10T03:33:24;5.60;99.90
59556;DHT22;45374;52.746;6.304;2023-01-10T03:39:02;5.70;99.90
59556;DHT22;45374;52.746;6.304;2023-01-10T03:41:52;5.90;99.90
59556;DHT22;45374;52.746;6.304;2023-01-10T03:49:40;5.70;99.90
59556;DHT22;45374;52.746;6.304;2023-01-10T03:52:08;5.90;99.90
59556;DHT22;45374;52.746;6.304;2023-01-10T03:54:35;6.00;99.90
59556;DHT22;45374;52.746;6.304;2023-01-10T03:57:00;5.80;99.90
59556;DHT22;45374;52.746;6.304;2023-01-10T03:59:27;5.80;99.90
59556;DHT22;45374;52.746;6.304;2023-01-10T04:01:53;5.90;99.90
59556;DHT22;45374;52.746;6.304;2023-01-10T04:04:20;5.90;99.90
59556;DHT22;45374;52.746;6.304;2023-01-10T04:06:45;5.80;99.90
59556;DHT22;45374;52.746;6.304;2023-01-10T04:09:11;6.00;99.90
59556;DHT22;45374;52.746;6.304;2023-01-10T04:11:37;5.90;99.90
59556;DHT22;45374;52.746;6.304;2023-01-10T04:14:02;6.00;99.90
59556;DHT22;45374;52.746;6.304;2023-01-10T04:16:28;5.90;99.90
59556;DHT22;45374;52.746;6.304;2023-01-10T04:18:54;5.90;99.90
59556;DHT22;45374;52.746;6.304;2023-01-10T04:21:19;5.90;99.90
59556;DHT22;45374;52.746;6.304;2023-01-10T04:23:45;6.10;99.90
59556;DHT22;45374;52.746;6.304;2023-01-10T04:26:11;5.80;99.90
59556;DHT22;45374;52.746;6.304;2023-01-10T04:28:37;5.90;99.90
59556;DHT22;45374;52.746;6.304;2023-01-10T04:31:02;5.90;99.90
59556;DHT22;45374;52.746;6.304;2023-01-10T04:33:28;5.70;99.90
59556;DHT22;45374;52.746;6.304;2023-01-10T04:35:54;5.90;99.90
59556;DHT22;45374;52.746;6.304;2023-01-10T04:38:20;5.70;99.90
59556;DHT22;45374;52.746;6.304;2023-01-10T04:40:52;5.80;99.90
59556;DHT22;45374;52.746;6.304;2023-01-10T04:43:18;5.80;99.90
59556;DHT22;45374;52.746;6.304;2023-01-10T04:45:44;5.50;99.90
59556;DHT22;45374;52.746;6.304;2023-01-10T04:48:09;5.70;99.90
59556;DHT22;45374;52.746;6.304;2023-01-10T04:50:35;5.60;99.90
59556;DHT22;45374;52.746;6.304;2023-01-10T04:53:00;5.60;99.90
59556;DHT22;45374;52.746;6.304;2023-01-10T04:55:26;5.70;99.90
59556;DHT22;45374;52.746;6.304;2023-01-10T04:57:52;5.70;99.90
59556;DHT22;45374;52.746;6.304;2023-01-10T05:00:17;5.60;99.90
59556;DHT22;45374;52.746;6.304;2023-01-10T05:02:43;5.80;99.90
59556;DHT22;45374;52.746;6.304;2023-01-10T05:05:12;5.90;99.90
59556;DHT22;45374;52.746;6.304;2023-01-10T05:07:39;5.90;99.90
59556;DHT22;45374;52.746;6.304;2023-01-10T05:10:06;5.90;99.90
59556;DHT22;45374;52.746;6.304;2023-01-10T05:12:32;5.80;99.90
59556;DHT22;45374;52.746;6.304;2023-01-10T05:14:57;5.90;99.90
59556;DHT22;45374;52.746;6.304;2023-01-10T05:17:23;6.00;99.90
59556;DHT22;45374;52.746;6.304;2023-01-10T05:19:48;6.00;99.90
59556;DHT22;45374;52.746;6.304;2023-01-10T05:22:14;5.90;99.90
59556;DHT22;45374;52.746;6.304;2023-01-10T05:24:40;6.00;99.90
59556;DHT22;45374;52.746;6.304;2023-01-10T05:27:06;6.10;99.90
59556;DHT22;45374;52.746;6.304;2023-01-10T05:29:32;6.10;99.90
59556;DHT22;45374;52.746;6.304;2023-01-10T05:31:58;6.10;99.90
59556;DHT22;45374;52.746;6.304;2023-01-10T05:34:24;6.00;99.90
59556;DHT22;45374;52.746;6.304;2023-01-10T05:36:49;5.90;99.90
59556;DHT22;45374;52.746;6.304;2023-01-10T05:39:15;5.80;99.90
59556;DHT22;45374;52.746;6.304;2023-01-10T05:41:41;6.00;99.90
59556;DHT22;45374;52.746;6.304;2023-01-10T05:44:07;5.80;99.90
59556;DHT22;45374;52.746;6.304;2023-01-10T05:46:33;5.80;99.90
59556;DHT22;45374;52.746;6.304;2023-01-10T05:48:59;5.70;99.90
59556;DHT22;45374;52.746;6.304;2023-01-10T05:51:24;5.70;99.90
59556;DHT22;45374;52.746;6.304;2023-01-10T05:53:50;5.70;99.90
59556;DHT22;45374;52.746;6.304;2023-01-10T05:56:16;5.70;99.90
59556;DHT22;45374;52.746;6.304;2023-01-10T05:58:42;5.50;99.90
59556;DHT22;45374;52.746;6.304;2023-01-10T06:01:08;5.50;99.90
59556;DHT22;45374;52.746;6.304;2023-01-10T06:03:34;5.40;99.90
59556;DHT22;45374;52.746;6.304;2023-01-10T06:06:00;5.50;99.90
59556;DHT22;45374;52.746;6.304;2023-01-10T06:08:27;5.40;99.90
59556;DHT22;45374;52.746;6.304;2023-01-10T06:10:53;5.30;99.90
59556;DHT22;45374;52.746;6.304;2023-01-10T06:13:19;5.10;99.90
59556;DHT22;45374;52.746;6.304;2023-01-10T06:15:44;5.20;99.90
59556;DHT22;45374;52.746;6.304;2023-01-10T06:18:10;5.30;99.90
59556;DHT22;45374;52.746;6.304;2023-01-10T06:20:36;5.00;99.90
59556;DHT22;45374;52.746;6.304;2023-01-10T06:23:01;5.00;99.90
59556;DHT22;45374;52.746;6.304;2023-01-10T06:25:30;5.10;99.90
59556;DHT22;45374;52.746;6.304;2023-01-10T06:27:55;5.10;99.90
59556;DHT22;45374;52.746;6.304;2023-01-10T06:30:21;4.90;99.90
59556;DHT22;45374;52.746;6.304;2023-01-10T06:32:47;5.10;99.90
59556;DHT22;45374;52.746;6.304;2023-01-10T06:35:12;4.90;99.90
59556;DHT22;45374;52.746;6.304;2023-01-10T06:37:38;5.00;99.90
59556;DHT22;45374;52.746;6.304;2023-01-10T06:40:04;4.90;99.90
59556;DHT22;45374;52.746;6.304;2023-01-10T06:42:30;5.00;99.90
59556;DHT22;45374;52.746;6.304;2023-01-10T06:44:56;5.00;99.90
59556;DHT22;45374;52.746;6.304;2023-01-10T06:47:21;4.90;99.90
59556;DHT22;45374;52.746;6.304;2023-01-10T06:49:47;5.00;99.90
59556;DHT22;45374;52.746;6.304;2023-01-10T06:52:12;4.80;99.90
59556;DHT22;45374;52.746;6.304;2023-01-10T06:54:38;4.90;99.90
59556;DHT22;45374;52.746;6.304;2023-01-10T06:57:06;4.90;99.90
59556;DHT22;45374;52.746;6.304;2023-01-10T06:59:32;4.80;99.90
59556;DHT22;45374;52.746;6.304;2023-01-10T07:01:57;5.00;99.90
59556;DHT22;45374;52.746;6.304;2023-01-10T07:04:23;4.90;99.90
59556;DHT22;45374;52.746;6.304;2023-01-10T07:06:48;4.90;99.90
59556;DHT22;45374;52.746;6.304;2023-01-10T07:09:14;4.80;99.90
59556;DHT22;45374;52.746;6.304;2023-01-10T07:11:40;4.90;99.90
59556;DHT22;45374;52.746;6.304;2023-01-10T07:14:05;5.00;99.90
59556;DHT22;45374;52.746;6.304;2023-01-10T07:16:31;4.80;99.90
59556;DHT22;45374;52.746;6.304;2023-01-10T07:18:58;4.80;99.90
59556;DHT22;45374;52.746;6.304;2023-01-10T07:21:24;4.70;99.90
59556;DHT22;45374;52.746;6.304;2023-01-10T07:23:49;4.90;99.90
59556;DHT22;45374;52.746;6.304;2023-01-10T07:26:16;4.80;99.90
59556;DHT22;45374;52.746;6.304;2023-01-10T07:28:44;5.10;99.90
59556;DHT22;45374;52.746;6.304;2023-01-10T07:31:10;5.10;99.90
59556;DHT22;45374;52.746;6.304;2023-01-10T07:33:37;4.90;99.90
59556;DHT22;45374;52.746;6.304;2023-01-10T07:36:03;5.20;99.90
59556;DHT22;45374;52.746;6.304;2023-01-10T07:38:29;5.00;99.90
59556;DHT22;45374;52.746;6.304;2023-01-10T07:40:55;5.00;99.90
59556;DHT22;45374;52.746;6.304;2023-01-10T07:43:20;5.20;99.90
59556;DHT22;45374;52.746;6.304;2023-01-10T07:45:46;5.00;99.90
59556;DHT22;45374;52.746;6.304;2023-01-10T07:48:12;5.20;99.90
59556;DHT22;45374;52.746;6.304;2023-01-10T07:50:37;4.90;99.90
59556;DHT22;45374;52.746;6.304;2023-01-10T07:53:05;4.90;99.90
59556;DHT22;45374;52.746;6.304;2023-01-10T07:55:31;5.00;99.90
59556;DHT22;45374;52.746;6.304;2023-01-10T07:57:59;5.10;99.90
59556;DHT22;45374;52.746;6.304;2023-01-10T08:00:25;5.00;99.90
59556;DHT22;45374;52.746;6.304;2023-01-10T08:02:54;5.00;99.90
59556;DHT22;45374;52.746;6.304;2023-01-10T08:05:21;5.00;99.90
59556;DHT22;45374;52.746;6.304;2023-01-10T08:07:47;5.00;99.90
59556;DHT22;45374;52.746;6.304;2023-01-10T08:10:13;4.70;99.90
59556;DHT22;45374;52.746;6.304;2023-01-10T08:12:39;4.70;99.90
59556;DHT22;45374;52.746;6.304;2023-01-10T08:15:05;4.80;99.90
59556;DHT22;45374;52.746;6.304;2023-01-10T08:17:34;4.80;99.90
59556;DHT22;45374;52.746;6.304;2023-01-10T08:20:00;4.70;99.90
59556;DHT22;45374;52.746;6.304;2023-01-10T08:22:26;4.60;99.90
59556;DHT22;45374;52.746;6.304;2023-01-10T08:24:51;4.80;99.90
59556;DHT22;45374;52.746;6.304;2023-01-10T08:27:17;4.70;99.90
59556;DHT22;45374;52.746;6.304;2023-01-10T08:29:43;4.70;99.90
59556;DHT22;45374;52.746;6.304;2023-01-10T08:32:09;5.00;99.90
59556;DHT22;45374;52.746;6.304;2023-01-10T08:34:35;5.10;99.90
59556;DHT22;45374;52.746;6.304;2023-01-10T08:37:01;5.00;99.90
59556;DHT22;45374;52.746;6.304;2023-01-10T08:39:28;5.30;99.90
59556;DHT22;45374;52.746;6.304;2023-01-10T08:41:55;5.30;99.90
59556;DHT22;45374;52.746;6.304;2023-01-10T08:44:20;5.10;99.90
59556;DHT22;45374;52.746;6.304;2023-01-10T08:46:46;5.40;99.90
59556;DHT22;45374;52.746;6.304;2023-01-10T08:49:12;5.20;99.90
59556;DHT22;45374;52.746;6.304;2023-01-10T08:51:39;5.50;99.90
59556;DHT22;45374;52.746;6.304;2023-01-10T08:54:04;5.50;99.90
59556;DHT22;45374;52.746;6.304;2023-01-10T08:56:30;5.40;99.90
59556;DHT22;45374;52.746;6.304;2023-01-10T08:58:56;5.60;99.90
59556;DHT22;45374;52.746;6.304;2023-01-10T09:01:21;5.80;99.90
59556;DHT22;45374;52.746;6.304;2023-01-10T09:03:47;5.70;99.90
59556;DHT22;45374;52.746;6.304;2023-01-10T09:06:13;5.80;99.90
59556;DHT22;45374;52.746;6.304;2023-01-10T09:08:38;6.00;99.90
59556;DHT22;45374;52.746;6.304;2023-01-10T09:11:05;5.80;99.90
59556;DHT22;45374;52.746;6.304;2023-01-10T09:13:31;6.10;99.90
59556;DHT22;45374;52.746;6.304;2023-01-10T09:15:57;6.00;99.90
59556;DHT22;45374;52.746;6.304;2023-01-10T09:18:24;6.00;99.90
59556;DHT22;45374;52.746;6.304;2023-01-10T09:20:50;6.00;99.90
59556;DHT22;45374;52.746;6.304;2023-01-10T09:23:18;6.10;99.90
59556;DHT22;45374;52.746;6.304;2023-01-10T09:25:46;6.00;99.90
59556;DHT22;45374;52.746;6.304;2023-01-10T09:28:13;6.30;99.90
59556;DHT22;45374;52.746;6.304;2023-01-10T09:30:38;6.30;99.90
59556;DHT22;45374;52.746;6.304;2023-01-10T09:33:05;6.20;99.90
59556;DHT22;45374;52.746;6.304;2023-01-10T09:35:31;6.50;99.90
59556;DHT22;45374;52.746;6.304;2023-01-10T09:38:00;6.60;99.90
59556;DHT22;45374;52.746;6.304;2023-01-10T09:43:53;6.60;99.90
59556;DHT22;45374;52.746;6.304;2023-01-10T09:46:32;6.50;99.90
59556;DHT22;45374;52.746;6.304;2023-01-10T09:51:43;6.80;99.90
59556;DHT22;45374;52.746;6.304;2023-01-10T09:54:19;6.80;99.90
59556;DHT22;45374;52.746;6.304;2023-01-10T09:56:48;6.70;99.90
59556;DHT22;45374;52.746;6.304;2023-01-10T09:59:17;6.90;99.90
59556;DHT22;45374;52.746;6.304;2023-01-10T10:01:44;6.90;99.90
59556;DHT22;45374;52.746;6.304;2023-01-10T10:06:50;7.00;99.90
59556;DHT22;45374;52.746;6.304;2023-01-10T10:09:25;7.00;99.90
59556;DHT22;45374;52.746;6.304;2023-01-10T10:21:07;7.00;99.90
59556;DHT22;45374;52.746;6.304;2023-01-10T10:23:58;7.10;99.90
59556;DHT22;45374;52.746;6.304;2023-01-10T10:26:27;7.00;99.90
59556;DHT22;45374;52.746;6.304;2023-01-10T10:32:04;7.10;99.90
59556;DHT22;45374;52.746;6.304;2023-01-10T10:34:43;7.00;99.90
59556;DHT22;45374;52.746;6.304;2023-01-10T10:37:51;7.10;99.90
59556;DHT22;45374;52.746;6.304;2023-01-10T10:40:28;7.10;99.90
59556;DHT22;45374;52.746;6.304;2023-01-10T10:42:58;7.20;99.90
59556;DHT22;45374;52.746;6.304;2023-01-10T10:45:35;7.20;99.90
59556;DHT22;45374;52.746;6.304;2023-01-10T10:48:35;7.10;99.90
59556;DHT22;45374;52.746;6.304;2023-01-10T10:54:12;7.00;99.90
59556;DHT22;45374;52.746;6.304;2023-01-10T10:56:39;7.10;99.90
59556;DHT22;45374;52.746;6.304;2023-01-10T10:59:05;7.00;99.90
59556;DHT22;45374;52.746;6.304;2023-01-10T11:01:31;7.20;99.90
59556;DHT22;45374;52.746;6.304;2023-01-10T11:04:02;7.00;99.90
59556;DHT22;45374;52.746;6.304;2023-01-10T11:06:30;7.10;99.90
59556;DHT22;45374;52.746;6.304;2023-01-10T11:09:00;7.00;99.90
59556;DHT22;45374;52.746;6.304;2023-01-10T11:11:48;7.10;99.90
59556;DHT22;45374;52.746;6.304;2023-01-10T11:14:43;7.00;99.90
59556;DHT22;45374;52.746;6.304;2023-01-10T11:17:39;7.10;99.90
59556;DHT22;45374;52.746;6.304;2023-01-10T11:20:13;7.00;99.90
59556;DHT22;45374;52.746;6.304;2023-01-10T11:22:48;7.10;99.90
59556;DHT22;45374;52.746;6.304;2023-01-10T11:25:17;7.00;99.90
59556;DHT22;45374;52.746;6.304;2023-01-10T11:27:49;7.00;99.90
59556;DHT22;45374;52.746;6.304;2023-01-10T11:30:21;7.00;99.90
59556;DHT22;45374;52.746;6.304;2023-01-10T11:32:59;7.20;99.90
59556;DHT22;45374;52.746;6.304;2023-01-10T11:35:32;7.00;99.90
59556;DHT22;45374;52.746;6.304;2023-01-10T11:38:03;7.00;99.90
59556;DHT22;45374;52.746;6.304;2023-01-10T11:40:34;7.10;99.90
59556;DHT22;45374;52.746;6.304;2023-01-10T11:46:04;6.90;99.90
59556;DHT22;45374;52.746;6.304;2023-01-10T11:48:48;7.00;99.90
59556;DHT22;45374;52.746;6.304;2023-01-10T11:51:24;7.00;99.90
59556;DHT22;45374;52.746;6.304;2023-01-10T11:56:53;7.00;99.90
59556;DHT22;45374;52.746;6.304;2023-01-10T11:59:19;6.90;99.90
59556;DHT22;45374;52.746;6.304;2023-01-10T12:01:52;6.90;99.90
59556;DHT22;45374;52.746;6.304;2023-01-10T12:04:19;6.90;99.90
59556;DHT22;45374;52.746;6.304;2023-01-10T12:06:48;6.90;99.90
59556;DHT22;45374;52.746;6.304;2023-01-10T12:12:22;6.90;99.90
59556;DHT22;45374;52.746;6.304;2023-01-10T12:14:51;6.80;99.90
59556;DHT22;45374;52.746;6.304;2023-01-10T12:19:46;6.80;99.90
59556;DHT22;45374;52.746;6.304;2023-01-10T12:22:14;6.80;99.90
59556;DHT22;45374;52.746;6.304;2023-01-10T12:24:42;6.80;99.90
59556;DHT22;45374;52.746;6.304;2023-01-10T12:27:14;6.80;99.90
59556;DHT22;45374;52.746;6.304;2023-01-10T12:30:06;6.90;99.90
59556;DHT22;45374;52.746;6.304;2023-01-10T12:32:48;6.70;99.90
59556;DHT22;45374;52.746;6.304;2023-01-10T12:35:22;6.80;99.90
59556;DHT22;45374;52.746;6.304;2023-01-10T12:38:02;6.80;99.90
59556;DHT22;45374;52.746;6.304;2023-01-10T12:40:52;6.80;99.90
59556;DHT22;45374;52.746;6.304;2023-01-10T12:43:34;6.80;99.90
59556;DHT22;45374;52.746;6.304;2023-01-10T12:46:46;6.70;99.90
59556;DHT22;45374;52.746;6.304;2023-01-10T12:49:22;6.70;99.90
59556;DHT22;45374;52.746;6.304;2023-01-10T12:51:51;6.80;99.90
59556;DHT22;45374;52.746;6.304;2023-01-10T12:54:24;6.70;99.90
59556;DHT22;45374;52.746;6.304;2023-01-10T12:56:51;6.80;99.90
59556;DHT22;45374;52.746;6.304;2023-01-10T12:59:22;6.70;99.90
59556;DHT22;45374;52.746;6.304;2023-01-10T13:01:56;6.70;99.90
59556;DHT22;45374;52.746;6.304;2023-01-10T13:04:27;6.70;99.90
59556;DHT22;45374;52.746;6.304;2023-01-10T13:06:54;6.70;99.90
59556;DHT22;45374;52.746;6.304;2023-01-10T13:09:22;6.80;99.90
59556;DHT22;45374;52.746;6.304;2023-01-10T13:11:55;6.60;99.90
59556;DHT22;45374;52.746;6.304;2023-01-10T13:14:34;6.60;99.90
59556;DHT22;45374;52.746;6.304;2023-01-10T13:22:45;6.60;99.90
59556;DHT22;45374;52.746;6.304;2023-01-10T13:25:41;6.60;99.90
59556;DHT22;45374;52.746;6.304;2023-01-10T13:28:26;6.50;99.90
59556;DHT22;45374;52.746;6.304;2023-01-10T13:30:55;6.50;99.90
59556;DHT22;45374;52.746;6.304;2023-01-10T13:35:49;6.50;99.90
59556;DHT22;45374;52.746;6.304;2023-01-10T13:38:19;6.50;99.90
59556;DHT22;45374;52.746;6.304;2023-01-10T13:51:29;6.40;99.90
59556;DHT22;45374;52.746;6.304;2023-01-10T13:53:59;6.40;99.90
59556;DHT22;45374;52.746;6.304;2023-01-10T13:56:38;6.30;99.90
59556;DHT22;45374;52.746;6.304;2023-01-10T14:02:21;6.30;99.90
59556;DHT22;45374;52.746;6.304;2023-01-10T14:07:41;6.30;99.90
59556;DHT22;45374;52.746;6.304;2023-01-10T14:10:18;6.20;99.90
59556;DHT22;45374;52.746;6.304;2023-01-10T14:12:50;6.20;99.90
59556;DHT22;45374;52.746;6.304;2023-01-10T14:15:26;6.30;99.90
59556;DHT22;45374;52.746;6.304;2023-01-10T14:18:01;6.30;99.90
59556;DHT22;45374;52.746;6.304;2023-01-10T14:20:29;6.30;99.90
59556;DHT22;45374;52.746;6.304;2023-01-10T14:23:07;6.30;99.90
59556;DHT22;45374;52.746;6.304;2023-01-10T14:25:42;6.30;99.90
59556;DHT22;45374;52.746;6.304;2023-01-10T14:28:26;6.30;99.90
59556;DHT22;45374;52.746;6.304;2023-01-10T14:31:17;6.30;99.90
59556;DHT22;45374;52.746;6.304;2023-01-10T14:33:44;6.30;99.90
59556;DHT22;45374;52.746;6.304;2023-01-10T14:38:45;6.20;99.90
59556;DHT22;45374;52.746;6.304;2023-01-10T14:41:20;6.20;99.90
59556;DHT22;45374;52.746;6.304;2023-01-10T14:43:58;6.20;99.90
59556;DHT22;45374;52.746;6.304;2023-01-10T14:46:47;6.20;99.90
59556;DHT22;45374;52.746;6.304;2023-01-10T14:49:34;6.20;99.90
59556;DHT22;45374;52.746;6.304;2023-01-10T14:54:36;6.10;99.90
59556;DHT22;45374;52.746;6.304;2023-01-10T14:57:02;6.20;99.90
59556;DHT22;45374;52.746;6.304;2023-01-10T14:59:32;6.20;99.90
59556;DHT22;45374;52.746;6.304;2023-01-10T15:02:23;6.20;99.90
59556;DHT22;45374;52.746;6.304;2023-01-10T15:07:15;6.20;99.90
59556;DHT22;45374;52.746;6.304;2023-01-10T15:09:47;6.20;99.90
59556;DHT22;45374;52.746;6.304;2023-01-10T15:12:14;6.10;99.90
59556;DHT22;45374;52.746;6.304;2023-01-10T15:14:41;6.20;99.90
59556;DHT22;45374;52.746;6.304;2023-01-10T15:17:11;6.10;99.90
59556;DHT22;45374;52.746;6.304;2023-01-10T15:19:42;6.30;99.90
59556;DHT22;45374;52.746;6.304;2023-01-10T15:22:32;6.30;99.90
59556;DHT22;45374;52.746;6.304;2023-01-10T15:27:46;6.30;99.90
59556;DHT22;45374;52.746;6.304;2023-01-10T15:30:29;6.30;99.90
59556;DHT22;45374;52.746;6.304;2023-01-10T15:33:00;6.30;99.90
59556;DHT22;45374;52.746;6.304;2023-01-10T15:35:28;6.30;99.90
59556;DHT22;45374;52.746;6.304;2023-01-10T15:38:04;6.30;99.90
59556;DHT22;45374;52.746;6.304;2023-01-10T15:40:33;6.20;99.90
59556;DHT22;45374;52.746;6.304;2023-01-10T15:45:49;6.40;99.90
59556;DHT22;45374;52.746;6.304;2023-01-10T15:48:34;6.30;99.90
59556;DHT22;45374;52.746;6.304;2023-01-10T15:51:02;6.30;99.90
59556;DHT22;45374;52.746;6.304;2023-01-10T15:56:19;6.40;99.90
59556;DHT22;45374;52.746;6.304;2023-01-10T15:58:45;6.30;99.90
59556;DHT22;45374;52.746;6.304;2023-01-10T16:01:15;6.30;99.90
59556;DHT22;45374;52.746;6.304;2023-01-10T16:03:47;6.40;99.90
59556;DHT22;45374;52.746;6.304;2023-01-10T16:06:25;6.30;99.90
59556;DHT22;45374;52.746;6.304;2023-01-10T16:08:54;6.40;99.90
59556;DHT22;45374;52.746;6.304;2023-01-10T16:14:12;6.30;99.90
59556;DHT22;45374;52.746;6.304;2023-01-10T16:16:37;6.30;99.90
59556;DHT22;45374;52.746;6.304;2023-01-10T16:19:03;6.30;99.90
59556;DHT22;45374;52.746;6.304;2023-01-10T16:21:38;6.20;99.90
59556;DHT22;45374;52.746;6.304;2023-01-10T16:24:04;6.20;99.90
59556;DHT22;45374;52.746;6.304;2023-01-10T16:26:30;6.30;99.90
59556;DHT22;45374;52.746;6.304;2023-01-10T16:28:56;6.30;99.90
59556;DHT22;45374;52.746;6.304;2023-01-10T16:31:21;6.30;99.90
59556;DHT22;45374;52.746;6.304;2023-01-10T16:33:47;6.20;99.90
59556;DHT22;45374;52.746;6.304;2023-01-10T16:36:15;6.20;99.90
59556;DHT22;45374;52.746;6.304;2023-01-10T16:38:41;6.30;99.90
59556;DHT22;45374;52.746;6.304;2023-01-10T16:41:12;6.30;99.90
59556;DHT22;45374;52.746;6.304;2023-01-10T16:43:56;6.20;99.90
59556;DHT22;45374;52.746;6.304;2023-01-10T16:46:22;6.30;99.90
59556;DHT22;45374;52.746;6.304;2023-01-10T16:48:48;6.20;99.90
59556;DHT22;45374;52.746;6.304;2023-01-10T16:51:23;6.20;99.90
59556;DHT22;45374;52.746;6.304;2023-01-10T16:53:50;6.30;99.90
59556;DHT22;45374;52.746;6.304;2023-01-10T16:56:27;6.20;99.90
59556;DHT22;45374;52.746;6.304;2023-01-10T16:58:53;6.20;99.90
59556;DHT22;45374;52.746;6.304;2023-01-10T17:01:33;6.20;99.90
59556;DHT22;45374;52.746;6.304;2023-01-10T17:04:00;6.20;99.90
59556;DHT22;45374;52.746;6.304;2023-01-10T17:06:25;6.30;99.90
59556;DHT22;45374;52.746;6.304;2023-01-10T17:08:51;6.30;99.90
59556;DHT22;45374;52.746;6.304;2023-01-10T17:11:21;6.30;99.90
59556;DHT22;45374;52.746;6.304;2023-01-10T17:13:50;6.30;99.90
59556;DHT22;45374;52.746;6.304;2023-01-10T17:16:15;6.30;99.90
59556;DHT22;45374;52.746;6.304;2023-01-10T17:18:41;6.10;99.90
59556;DHT22;45374;52.746;6.304;2023-01-10T17:21:14;6.20;99.90
59556;DHT22;45374;52.746;6.304;2023-01-10T17:23:41;6.30;99.90
59556;DHT22;45374;52.746;6.304;2023-01-10T17:26:06;6.20;99.90
59556;DHT22;45374;52.746;6.304;2023-01-10T17:28:32;6.30;99.90
59556;DHT22;45374;52.746;6.304;2023-01-10T17:30:58;6.20;99.90
59556;DHT22;45374;52.746;6.304;2023-01-10T17:33:25;6.30;99.90
59556;DHT22;45374;52.746;6.304;2023-01-10T17:35:55;6.30;99.90
59556;DHT22;45374;52.746;6.304;2023-01-10T17:38:22;6.20;99.90
59556;DHT22;45374;52.746;6.304;2023-01-10T17:40:49;6.30;99.90
59556;DHT22;45374;52.746;6.304;2023-01-10T17:43:15;6.20;99.90
59556;DHT22;45374;52.746;6.304;2023-01-10T17:45:43;6.40;99.90
59556;DHT22;45374;52.746;6.304;2023-01-10T17:48:11;6.10;99.90
59556;DHT22;45374;52.746;6.304;2023-01-10T17:50:39;6.10;99.90
59556;DHT22;45374;52.746;6.304;2023-01-10T17:53:05;6.30;99.90